Hlavní strana
METAR-TAF:

METAR-TAF

Letiště :

Letiště Girona

Girona, Španělsko

zeměpisná šířka: 41-54N, zeměpisná délka: 002-46E, výška: 143 m

Aktuální stav počasí

Zpráva byla vytvořena před 43 minutami, v 04:00 UTC
vítr z různých směrů 1 kt
Teplota 12°C
Vlhkost vzduchu 94%
Tlak 1025 hPa
Viditelnost 10 km a více
Žádná oblačnost pod 1500 m, nevyskytují se cumulonimby.

METAR: LEGE 260400Z VRB01KT CAVOK 12/11 Q1025

Čas: 06:43 (04:43 UTC)

Předpověď počasí

Zpráva byla vytvořena před 5 hodinami a 43 minutami, v 23:00 UTC
Předpověď platná od 26 v 00 UTC do 26 v 24 UTC
Severozápadní vítr 5 kt
Viditelnost 10 km a více
Oblačno až skoro zataženo ve výšce 5000 ft
Dočasný
od 26 v 08 UTC do 26 v 12 UTC
vítr z různých směrů 4 kt
Změna
od 26 v 12 UTC do 26 v 14 UTC
Jihojihozápadní vítr 10 kt
Změna
od 26 v 20 UTC do 26 v 22 UTC
Severoseverozápadní vítr 5 kt

TAF: LEGE 252300Z 2600/2624 31005KT 9999 BKN050 TX30/2612Z TN16/2606Z TEMPO 2608/2612 VRB04KT BECMG 2612/2614 20010KT BECMG 2620/2622 33005KT

Stav a předpovědi počasí z více než 4 000 letišť (zprávy METAR a TAF).

Červené a žluté tečky na mapě představují dostupné meteorologické stanice.

Když kurzor umístíte na tečku, zobrazí se název stanice.

Pak kliknutím zobrazíte stav a předpověď počasí.

Chcete-li změnit mapu, kliknutím na zelené tlačítko se znaménkem +mapu přiblížíte, kliknutím na zelené tlačítko se znaménkem – mapu oddálíte a kliknutím na zelené šipky přejdete na sousední mapy.


METAR-TAF: